sensor_id;sensor_type;location;lat;lon;timestamp;P1;durP1;ratioP1;P2;durP2;ratioP2
51242;SDS011;76969;47.548;18.730;2024-03-02T00:00:08;12.90;;;4.97;;
51242;SDS011;76969;47.548;18.730;2024-03-02T00:02:55;16.48;;;5.62;;
51242;SDS011;76969;47.548;18.730;2024-03-02T00:05:21;15.52;;;5.45;;
51242;SDS011;76969;47.548;18.730;2024-03-02T00:07:52;12.30;;;6.35;;
51242;SDS011;76969;47.548;18.730;2024-03-02T00:10:25;12.60;;;5.93;;
51242;SDS011;76969;47.548;18.730;2024-03-02T00:12:57;13.10;;;4.90;;
51242;SDS011;76969;47.548;18.730;2024-03-02T00:18:11;15.65;;;4.97;;
51242;SDS011;76969;47.548;18.730;2024-03-02T00:20:39;13.73;;;4.72;;
51242;SDS011;76969;47.548;18.730;2024-03-02T00:23:06;14.93;;;5.62;;
51242;SDS011;76969;47.548;18.730;2024-03-02T00:28:27;14.40;;;4.40;;
51242;SDS011;76969;47.548;18.730;2024-03-02T00:30:55;13.73;;;5.07;;
51242;SDS011;76969;47.548;18.730;2024-03-02T00:33:30;11.25;;;4.45;;
51242;SDS011;76969;47.548;18.730;2024-03-02T00:35:57;14.07;;;5.57;;
51242;SDS011;76969;47.548;18.730;2024-03-02T00:38:24;12.93;;;4.43;;
51242;SDS011;76969;47.548;18.730;2024-03-02T00:40:50;13.55;;;5.32;;
51242;SDS011;76969;47.548;18.730;2024-03-02T00:46:06;14.32;;;5.55;;
51242;SDS011;76969;47.548;18.730;2024-03-02T00:48:33;9.48;;;3.08;;
51242;SDS011;76969;47.548;18.730;2024-03-02T00:51:01;11.40;;;4.93;;
51242;SDS011;76969;47.548;18.730;2024-03-02T00:53:31;13.55;;;5.90;;
51242;SDS011;76969;47.548;18.730;2024-03-02T00:55:58;13.68;;;5.25;;
51242;SDS011;76969;47.548;18.730;2024-03-02T00:58:25;11.27;;;4.25;;
51242;SDS011;76969;47.548;18.730;2024-03-02T01:00:51;16.15;;;5.32;;
51242;SDS011;76969;47.548;18.730;2024-03-02T01:03:17;12.23;;;4.53;;
51242;SDS011;76969;47.548;18.730;2024-03-02T01:05:44;13.07;;;5.72;;
51242;SDS011;76969;47.548;18.730;2024-03-02T01:08:10;15.60;;;6.72;;
51242;SDS011;76969;47.548;18.730;2024-03-02T01:10:36;12.80;;;5.32;;
51242;SDS011;76969;47.548;18.730;2024-03-02T01:13:02;15.82;;;5.20;;
51242;SDS011;76969;47.548;18.730;2024-03-02T01:15:28;15.38;;;6.00;;
51242;SDS011;76969;47.548;18.730;2024-03-02T01:17:54;15.40;;;6.25;;
51242;SDS011;76969;47.548;18.730;2024-03-02T01:20:20;19.12;;;5.03;;
51242;SDS011;76969;47.548;18.730;2024-03-02T01:22:46;14.52;;;5.47;;
51242;SDS011;76969;47.548;18.730;2024-03-02T01:25:12;10.40;;;4.50;;
51242;SDS011;76969;47.548;18.730;2024-03-02T01:27:39;14.18;;;4.30;;
51242;SDS011;76969;47.548;18.730;2024-03-02T01:30:05;14.25;;;5.03;;
51242;SDS011;76969;47.548;18.730;2024-03-02T01:32:31;14.15;;;5.03;;
51242;SDS011;76969;47.548;18.730;2024-03-02T01:34:57;14.73;;;4.85;;
51242;SDS011;76969;47.548;18.730;2024-03-02T01:37:23;13.68;;;5.95;;
51242;SDS011;76969;47.548;18.730;2024-03-02T01:39:49;10.95;;;4.72;;
51242;SDS011;76969;47.548;18.730;2024-03-02T01:42:15;11.10;;;5.53;;
51242;SDS011;76969;47.548;18.730;2024-03-02T01:44:41;13.75;;;4.55;;
51242;SDS011;76969;47.548;18.730;2024-03-02T01:47:07;13.52;;;5.62;;
51242;SDS011;76969;47.548;18.730;2024-03-02T01:49:33;12.13;;;5.03;;
51242;SDS011;76969;47.548;18.730;2024-03-02T01:51:59;13.65;;;5.35;;
51242;SDS011;76969;47.548;18.730;2024-03-02T01:54:25;12.50;;;5.40;;
51242;SDS011;76969;47.548;18.730;2024-03-02T01:56:51;13.50;;;5.78;;
51242;SDS011;76969;47.548;18.730;2024-03-02T01:59:17;11.27;;;4.45;;
51242;SDS011;76969;47.548;18.730;2024-03-02T02:01:43;11.98;;;3.30;;
51242;SDS011;76969;47.548;18.730;2024-03-02T02:04:09;13.70;;;4.93;;
51242;SDS011;76969;47.548;18.730;2024-03-02T02:06:35;14.00;;;6.62;;
51242;SDS011;76969;47.548;18.730;2024-03-02T02:09:01;13.90;;;5.97;;
51242;SDS011;76969;47.548;18.730;2024-03-02T02:11:27;9.75;;;4.85;;
51242;SDS011;76969;47.548;18.730;2024-03-02T02:13:53;14.02;;;5.65;;
51242;SDS011;76969;47.548;18.730;2024-03-02T02:16:21;14.35;;;5.53;;
51242;SDS011;76969;47.548;18.730;2024-03-02T02:18:47;11.50;;;4.72;;
51242;SDS011;76969;47.548;18.730;2024-03-02T02:21:12;10.98;;;4.28;;
51242;SDS011;76969;47.548;18.730;2024-03-02T02:23:38;14.38;;;5.15;;
51242;SDS011;76969;47.548;18.730;2024-03-02T02:26:04;16.73;;;6.03;;
51242;SDS011;76969;47.548;18.730;2024-03-02T02:28:30;19.12;;;5.20;;
51242;SDS011;76969;47.548;18.730;2024-03-02T02:30:56;13.25;;;5.45;;
51242;SDS011;76969;47.548;18.730;2024-03-02T02:33:22;12.98;;;5.18;;
51242;SDS011;76969;47.548;18.730;2024-03-02T02:35:48;14.00;;;4.70;;
51242;SDS011;76969;47.548;18.730;2024-03-02T02:38:14;12.73;;;5.57;;
51242;SDS011;76969;47.548;18.730;2024-03-02T02:40:40;11.63;;;5.40;;
51242;SDS011;76969;47.548;18.730;2024-03-02T02:43:06;13.35;;;6.05;;
51242;SDS011;76969;47.548;18.730;2024-03-02T02:45:32;12.77;;;4.35;;
51242;SDS011;76969;47.548;18.730;2024-03-02T02:47:58;13.35;;;6.40;;
51242;SDS011;76969;47.548;18.730;2024-03-02T02:50:24;13.50;;;4.57;;
51242;SDS011;76969;47.548;18.730;2024-03-02T02:52:50;17.42;;;4.95;;
51242;SDS011;76969;47.548;18.730;2024-03-02T02:55:15;14.02;;;6.57;;
51242;SDS011;76969;47.548;18.730;2024-03-02T02:57:42;12.55;;;5.05;;
51242;SDS011;76969;47.548;18.730;2024-03-02T03:00:10;11.80;;;5.10;;
51242;SDS011;76969;47.548;18.730;2024-03-02T03:02:40;15.05;;;6.65;;
51242;SDS011;76969;47.548;18.730;2024-03-02T03:05:08;13.55;;;5.93;;
51242;SDS011;76969;47.548;18.730;2024-03-02T03:07:35;20.90;;;6.75;;
51242;SDS011;76969;47.548;18.730;2024-03-02T03:10:02;12.75;;;5.28;;
51242;SDS011;76969;47.548;18.730;2024-03-02T03:12:30;16.67;;;5.90;;
51242;SDS011;76969;47.548;18.730;2024-03-02T03:14:56;13.75;;;4.87;;
51242;SDS011;76969;47.548;18.730;2024-03-02T03:17:23;15.15;;;5.18;;
51242;SDS011;76969;47.548;18.730;2024-03-02T03:19:49;11.85;;;5.30;;
51242;SDS011;76969;47.548;18.730;2024-03-02T03:22:15;11.75;;;4.90;;
51242;SDS011;76969;47.548;18.730;2024-03-02T03:24:41;12.32;;;4.53;;
51242;SDS011;76969;47.548;18.730;2024-03-02T03:27:07;13.38;;;5.62;;
51242;SDS011;76969;47.548;18.730;2024-03-02T03:29:33;12.82;;;6.25;;
51242;SDS011;76969;47.548;18.730;2024-03-02T03:31:59;14.27;;;4.28;;
51242;SDS011;76969;47.548;18.730;2024-03-02T03:34:25;15.13;;;4.72;;
51242;SDS011;76969;47.548;18.730;2024-03-02T03:36:51;16.02;;;4.95;;
51242;SDS011;76969;47.548;18.730;2024-03-02T03:39:16;15.70;;;4.75;;
51242;SDS011;76969;47.548;18.730;2024-03-02T03:41:43;16.75;;;5.32;;
51242;SDS011;76969;47.548;18.730;2024-03-02T03:44:09;13.82;;;5.90;;
51242;SDS011;76969;47.548;18.730;2024-03-02T03:46:35;16.83;;;6.43;;
51242;SDS011;76969;47.548;18.730;2024-03-02T03:49:00;11.68;;;4.15;;
51242;SDS011;76969;47.548;18.730;2024-03-02T03:51:26;13.05;;;5.12;;
51242;SDS011;76969;47.548;18.730;2024-03-02T03:53:52;12.50;;;5.10;;
51242;SDS011;76969;47.548;18.730;2024-03-02T03:56:18;11.15;;;4.18;;
51242;SDS011;76969;47.548;18.730;2024-03-02T03:58:44;13.10;;;5.10;;
51242;SDS011;76969;47.548;18.730;2024-03-02T04:01:10;9.38;;;4.15;;
51242;SDS011;76969;47.548;18.730;2024-03-02T04:03:36;13.27;;;5.03;;
51242;SDS011;76969;47.548;18.730;2024-03-02T04:06:02;11.63;;;4.25;;
51242;SDS011;76969;47.548;18.730;2024-03-02T04:08:28;11.60;;;4.60;;
51242;SDS011;76969;47.548;18.730;2024-03-02T04:10:54;11.27;;;4.37;;
51242;SDS011;76969;47.548;18.730;2024-03-02T04:13:19;11.52;;;4.65;;
51242;SDS011;76969;47.548;18.730;2024-03-02T04:15:45;16.75;;;4.85;;
51242;SDS011;76969;47.548;18.730;2024-03-02T04:18:11;12.45;;;4.72;;
51242;SDS011;76969;47.548;18.730;2024-03-02T04:20:37;14.63;;;5.12;;
51242;SDS011;76969;47.548;18.730;2024-03-02T04:23:03;16.37;;;5.40;;
51242;SDS011;76969;47.548;18.730;2024-03-02T04:25:29;13.18;;;4.78;;
51242;SDS011;76969;47.548;18.730;2024-03-02T04:27:55;14.40;;;5.32;;
51242;SDS011;76969;47.548;18.730;2024-03-02T04:30:21;15.50;;;5.62;;
51242;SDS011;76969;47.548;18.730;2024-03-02T04:32:47;10.07;;;4.35;;
51242;SDS011;76969;47.548;18.730;2024-03-02T04:35:14;13.60;;;5.12;;
51242;SDS011;76969;47.548;18.730;2024-03-02T04:37:40;11.55;;;4.15;;
51242;SDS011;76969;47.548;18.730;2024-03-02T04:40:06;12.63;;;4.97;;
51242;SDS011;76969;47.548;18.730;2024-03-02T04:42:35;14.68;;;5.40;;
51242;SDS011;76969;47.548;18.730;2024-03-02T04:45:01;14.55;;;4.47;;
51242;SDS011;76969;47.548;18.730;2024-03-02T04:47:27;13.25;;;5.10;;
51242;SDS011;76969;47.548;18.730;2024-03-02T04:49:53;14.93;;;5.55;;
51242;SDS011;76969;47.548;18.730;2024-03-02T04:52:19;13.45;;;5.40;;
51242;SDS011;76969;47.548;18.730;2024-03-02T04:54:45;13.70;;;4.43;;
51242;SDS011;76969;47.548;18.730;2024-03-02T04:57:30;15.00;;;6.37;;
51242;SDS011;76969;47.548;18.730;2024-03-02T04:59:56;10.18;;;4.35;;
51242;SDS011;76969;47.548;18.730;2024-03-02T05:02:21;12.15;;;4.40;;
51242;SDS011;76969;47.548;18.730;2024-03-02T05:04:47;16.83;;;4.68;;
51242;SDS011;76969;47.548;18.730;2024-03-02T05:07:14;18.92;;;5.60;;
51242;SDS011;76969;47.548;18.730;2024-03-02T05:09:40;12.57;;;4.03;;
51242;SDS011;76969;47.548;18.730;2024-03-02T05:12:06;11.55;;;4.43;;
51242;SDS011;76969;47.548;18.730;2024-03-02T05:15:01;13.38;;;5.10;;
51242;SDS011;76969;47.548;18.730;2024-03-02T05:17:27;9.77;;;3.72;;
51242;SDS011;76969;47.548;18.730;2024-03-02T05:19:53;12.40;;;4.07;;
51242;SDS011;76969;47.548;18.730;2024-03-02T05:22:19;13.18;;;4.87;;
51242;SDS011;76969;47.548;18.730;2024-03-02T05:24:45;13.98;;;5.10;;
51242;SDS011;76969;47.548;18.730;2024-03-02T05:27:11;11.12;;;5.05;;
51242;SDS011;76969;47.548;18.730;2024-03-02T05:29:36;9.90;;;4.07;;
51242;SDS011;76969;47.548;18.730;2024-03-02T05:32:02;9.45;;;4.00;;
51242;SDS011;76969;47.548;18.730;2024-03-02T05:34:28;12.65;;;5.30;;
51242;SDS011;76969;47.548;18.730;2024-03-02T05:36:56;14.52;;;6.50;;
51242;SDS011;76969;47.548;18.730;2024-03-02T05:39:23;10.68;;;3.80;;
51242;SDS011;76969;47.548;18.730;2024-03-02T05:41:49;13.52;;;5.37;;
51242;SDS011;76969;47.548;18.730;2024-03-02T05:44:15;11.98;;;5.35;;
51242;SDS011;76969;47.548;18.730;2024-03-02T05:46:41;12.60;;;6.00;;
51242;SDS011;76969;47.548;18.730;2024-03-02T05:49:07;11.05;;;4.75;;
51242;SDS011;76969;47.548;18.730;2024-03-02T05:51:36;16.15;;;5.80;;
51242;SDS011;76969;47.548;18.730;2024-03-02T05:54:02;11.43;;;5.72;;
51242;SDS011;76969;47.548;18.730;2024-03-02T05:56:28;11.32;;;4.18;;
51242;SDS011;76969;47.548;18.730;2024-03-02T05:58:54;14.85;;;5.95;;
51242;SDS011;76969;47.548;18.730;2024-03-02T06:01:47;12.77;;;4.93;;
51242;SDS011;76969;47.548;18.730;2024-03-02T06:04:15;14.73;;;6.10;;
51242;SDS011;76969;47.548;18.730;2024-03-02T06:06:41;16.80;;;6.80;;
51242;SDS011;76969;47.548;18.730;2024-03-02T06:09:08;14.30;;;5.80;;
51242;SDS011;76969;47.548;18.730;2024-03-02T06:11:38;13.98;;;5.18;;
51242;SDS011;76969;47.548;18.730;2024-03-02T06:14:05;15.25;;;5.80;;
51242;SDS011;76969;47.548;18.730;2024-03-02T06:16:31;11.73;;;5.03;;
51242;SDS011;76969;47.548;18.730;2024-03-02T06:18:57;13.20;;;4.90;;
51242;SDS011;76969;47.548;18.730;2024-03-02T06:21:24;15.20;;;7.15;;
51242;SDS011;76969;47.548;18.730;2024-03-02T06:23:50;12.05;;;4.35;;
51242;SDS011;76969;47.548;18.730;2024-03-02T06:26:16;14.82;;;5.57;;
51242;SDS011;76969;47.548;18.730;2024-03-02T06:28:43;17.90;;;6.28;;
51242;SDS011;76969;47.548;18.730;2024-03-02T06:31:08;17.65;;;4.78;;
51242;SDS011;76969;47.548;18.730;2024-03-02T06:33:35;12.63;;;4.90;;
51242;SDS011;76969;47.548;18.730;2024-03-02T06:36:01;13.90;;;4.70;;
51242;SDS011;76969;47.548;18.730;2024-03-02T06:38:27;15.02;;;5.20;;
51242;SDS011;76969;47.548;18.730;2024-03-02T06:40:53;13.23;;;5.15;;
51242;SDS011;76969;47.548;18.730;2024-03-02T06:43:20;15.68;;;4.97;;
51242;SDS011;76969;47.548;18.730;2024-03-02T06:45:50;16.52;;;4.93;;
51242;SDS011;76969;47.548;18.730;2024-03-02T06:48:17;12.45;;;5.20;;
51242;SDS011;76969;47.548;18.730;2024-03-02T06:50:49;18.42;;;7.20;;
51242;SDS011;76969;47.548;18.730;2024-03-02T06:53:16;13.07;;;5.37;;
51242;SDS011;76969;47.548;18.730;2024-03-02T06:55:45;15.88;;;5.37;;
51242;SDS011;76969;47.548;18.730;2024-03-02T06:58:12;13.65;;;4.87;;
51242;SDS011;76969;47.548;18.730;2024-03-02T07:00:38;13.18;;;4.72;;
51242;SDS011;76969;47.548;18.730;2024-03-02T07:03:04;17.60;;;7.00;;
51242;SDS011;76969;47.548;18.730;2024-03-02T07:05:30;15.73;;;4.28;;
51242;SDS011;76969;47.548;18.730;2024-03-02T07:07:56;14.55;;;5.45;;
51242;SDS011;76969;47.548;18.730;2024-03-02T07:10:22;14.45;;;5.35;;
51242;SDS011;76969;47.548;18.730;2024-03-02T07:12:48;12.85;;;4.25;;
51242;SDS011;76969;47.548;18.730;2024-03-02T07:15:14;20.00;;;6.53;;
51242;SDS011;76969;47.548;18.730;2024-03-02T07:17:52;12.48;;;3.67;;
51242;SDS011;76969;47.548;18.730;2024-03-02T07:20:18;13.38;;;4.60;;
51242;SDS011;76969;47.548;18.730;2024-03-02T07:22:44;13.23;;;4.95;;
51242;SDS011;76969;47.548;18.730;2024-03-02T07:25:09;15.48;;;6.10;;
51242;SDS011;76969;47.548;18.730;2024-03-02T07:27:35;12.18;;;4.82;;
51242;SDS011;76969;47.548;18.730;2024-03-02T07:30:04;19.15;;;5.75;;
51242;SDS011;76969;47.548;18.730;2024-03-02T07:32:30;13.73;;;4.95;;
51242;SDS011;76969;47.548;18.730;2024-03-02T07:34:56;14.85;;;4.75;;
51242;SDS011;76969;47.548;18.730;2024-03-02T07:37:23;13.23;;;4.72;;
51242;SDS011;76969;47.548;18.730;2024-03-02T07:39:49;15.07;;;5.07;;
51242;SDS011;76969;47.548;18.730;2024-03-02T07:42:16;10.68;;;4.65;;
51242;SDS011;76969;47.548;18.730;2024-03-02T07:44:46;14.80;;;5.20;;
51242;SDS011;76969;47.548;18.730;2024-03-02T07:47:11;11.65;;;4.70;;
51242;SDS011;76969;47.548;18.730;2024-03-02T07:49:37;11.95;;;5.72;;
51242;SDS011;76969;47.548;18.730;2024-03-02T07:52:03;14.38;;;5.57;;
51242;SDS011;76969;47.548;18.730;2024-03-02T07:54:29;12.25;;;5.62;;
51242;SDS011;76969;47.548;18.730;2024-03-02T07:56:55;14.38;;;5.82;;
51242;SDS011;76969;47.548;18.730;2024-03-02T07:59:21;17.15;;;4.50;;
51242;SDS011;76969;47.548;18.730;2024-03-02T08:01:48;14.15;;;5.10;;
51242;SDS011;76969;47.548;18.730;2024-03-02T08:04:14;12.30;;;5.03;;
51242;SDS011;76969;47.548;18.730;2024-03-02T08:06:40;11.95;;;4.28;;
51242;SDS011;76969;47.548;18.730;2024-03-02T08:09:06;14.65;;;5.90;;
51242;SDS011;76969;47.548;18.730;2024-03-02T08:11:35;12.93;;;5.28;;
51242;SDS011;76969;47.548;18.730;2024-03-02T08:14:03;10.55;;;4.35;;
51242;SDS011;76969;47.548;18.730;2024-03-02T08:16:29;13.35;;;4.60;;
51242;SDS011;76969;47.548;18.730;2024-03-02T08:18:55;14.30;;;5.40;;
51242;SDS011;76969;47.548;18.730;2024-03-02T08:21:23;14.57;;;5.03;;
51242;SDS011;76969;47.548;18.730;2024-03-02T08:23:50;9.25;;;4.72;;
51242;SDS011;76969;47.548;18.730;2024-03-02T08:26:16;11.05;;;5.43;;
51242;SDS011;76969;47.548;18.730;2024-03-02T08:28:42;12.32;;;4.90;;
51242;SDS011;76969;47.548;18.730;2024-03-02T08:31:08;14.40;;;5.87;;
51242;SDS011;76969;47.548;18.730;2024-03-02T08:33:34;14.15;;;5.12;;
51242;SDS011;76969;47.548;18.730;2024-03-02T08:36:00;14.23;;;4.93;;
51242;SDS011;76969;47.548;18.730;2024-03-02T08:38:27;12.73;;;4.40;;
51242;SDS011;76969;47.548;18.730;2024-03-02T08:40:53;12.27;;;5.35;;
51242;SDS011;76969;47.548;18.730;2024-03-02T08:43:19;13.02;;;5.40;;
51242;SDS011;76969;47.548;18.730;2024-03-02T08:45:45;15.85;;;5.62;;
51242;SDS011;76969;47.548;18.730;2024-03-02T08:48:12;14.82;;;5.25;;
51242;SDS011;76969;47.548;18.730;2024-03-02T08:50:38;11.70;;;4.28;;
51242;SDS011;76969;47.548;18.730;2024-03-02T08:53:04;10.02;;;4.30;;
51242;SDS011;76969;47.548;18.730;2024-03-02T08:55:30;14.45;;;5.03;;
51242;SDS011;76969;47.548;18.730;2024-03-02T08:57:56;12.70;;;4.55;;
51242;SDS011;76969;47.548;18.730;2024-03-02T09:00:22;17.85;;;5.80;;
51242;SDS011;76969;47.548;18.730;2024-03-02T09:02:49;12.37;;;5.30;;
51242;SDS011;76969;47.548;18.730;2024-03-02T09:05:15;14.32;;;5.68;;
51242;SDS011;76969;47.548;18.730;2024-03-02T09:07:41;14.52;;;5.22;;
51242;SDS011;76969;47.548;18.730;2024-03-02T09:10:07;14.40;;;5.03;;
51242;SDS011;76969;47.548;18.730;2024-03-02T09:12:34;13.98;;;4.40;;
51242;SDS011;76969;47.548;18.730;2024-03-02T09:15:03;17.85;;;6.25;;
51242;SDS011;76969;47.548;18.730;2024-03-02T09:17:29;12.27;;;4.70;;
51242;SDS011;76969;47.548;18.730;2024-03-02T09:19:55;15.02;;;6.05;;
51242;SDS011;76969;47.548;18.730;2024-03-02T09:22:21;14.40;;;5.32;;
51242;SDS011;76969;47.548;18.730;2024-03-02T09:24:48;15.05;;;6.75;;
51242;SDS011;76969;47.548;18.730;2024-03-02T09:27:14;11.88;;;4.95;;
51242;SDS011;76969;47.548;18.730;2024-03-02T09:29:40;12.25;;;4.72;;
51242;SDS011;76969;47.548;18.730;2024-03-02T09:32:06;12.37;;;5.10;;
51242;SDS011;76969;47.548;18.730;2024-03-02T09:34:33;14.30;;;4.50;;
51242;SDS011;76969;47.548;18.730;2024-03-02T09:36:59;11.55;;;4.07;;
51242;SDS011;76969;47.548;18.730;2024-03-02T09:39:25;9.73;;;4.47;;
51242;SDS011;76969;47.548;18.730;2024-03-02T09:41:51;11.77;;;4.40;;
51242;SDS011;76969;47.548;18.730;2024-03-02T09:44:17;11.88;;;4.75;;
51242;SDS011;76969;47.548;18.730;2024-03-02T09:46:43;13.43;;;4.60;;
51242;SDS011;76969;47.548;18.730;2024-03-02T09:49:12;13.82;;;5.03;;
51242;SDS011;76969;47.548;18.730;2024-03-02T09:51:38;11.25;;;3.92;;
51242;SDS011;76969;47.548;18.730;2024-03-02T09:54:05;13.10;;;4.25;;
51242;SDS011;76969;47.548;18.730;2024-03-02T09:56:33;11.18;;;4.60;;
51242;SDS011;76969;47.548;18.730;2024-03-02T09:58:59;9.07;;;3.42;;
51242;SDS011;76969;47.548;18.730;2024-03-02T10:01:25;9.90;;;3.72;;
51242;SDS011;76969;47.548;18.730;2024-03-02T10:03:51;9.75;;;3.78;;
51242;SDS011;76969;47.548;18.730;2024-03-02T10:06:19;10.95;;;3.95;;
51242;SDS011;76969;47.548;18.730;2024-03-02T10:08:45;12.60;;;3.22;;
51242;SDS011;76969;47.548;18.730;2024-03-02T10:11:17;9.05;;;3.47;;
51242;SDS011;76969;47.548;18.730;2024-03-02T10:13:51;11.12;;;4.18;;
51242;SDS011;76969;47.548;18.730;2024-03-02T10:18:50;10.80;;;3.37;;
51242;SDS011;76969;47.548;18.730;2024-03-02T10:21:16;12.82;;;4.37;;
51242;SDS011;76969;47.548;18.730;2024-03-02T10:23:41;13.62;;;4.43;;
51242;SDS011;76969;47.548;18.730;2024-03-02T10:26:16;11.25;;;3.62;;
51242;SDS011;76969;47.548;18.730;2024-03-02T10:28:46;9.35;;;3.62;;
51242;SDS011;76969;47.548;18.730;2024-03-02T10:31:13;9.73;;;3.53;;
51242;SDS011;76969;47.548;18.730;2024-03-02T10:33:39;10.90;;;4.40;;
51242;SDS011;76969;47.548;18.730;2024-03-02T10:36:05;10.10;;;3.92;;
51242;SDS011;76969;47.548;18.730;2024-03-02T10:38:32;13.70;;;4.25;;
51242;SDS011;76969;47.548;18.730;2024-03-02T10:40:59;12.30;;;4.50;;
51242;SDS011;76969;47.548;18.730;2024-03-02T10:43:25;7.55;;;2.95;;
51242;SDS011;76969;47.548;18.730;2024-03-02T10:45:51;11.07;;;4.12;;
51242;SDS011;76969;47.548;18.730;2024-03-02T10:48:18;14.25;;;4.57;;
51242;SDS011;76969;47.548;18.730;2024-03-02T10:50:44;11.40;;;4.07;;
51242;SDS011;76969;47.548;18.730;2024-03-02T10:53:10;12.43;;;4.12;;
51242;SDS011;76969;47.548;18.730;2024-03-02T10:55:36;9.05;;;3.90;;
51242;SDS011;76969;47.548;18.730;2024-03-02T10:58:03;11.35;;;4.43;;
51242;SDS011;76969;47.548;18.730;2024-03-02T11:00:33;9.55;;;3.08;;
51242;SDS011;76969;47.548;18.730;2024-03-02T11:03:06;11.75;;;4.22;;
51242;SDS011;76969;47.548;18.730;2024-03-02T11:05:36;13.40;;;3.97;;
51242;SDS011;76969;47.548;18.730;2024-03-02T11:08:08;10.38;;;3.85;;
51242;SDS011;76969;47.548;18.730;2024-03-02T11:10:37;10.68;;;4.15;;
51242;SDS011;76969;47.548;18.730;2024-03-02T11:13:09;10.38;;;3.45;;
51242;SDS011;76969;47.548;18.730;2024-03-02T11:15:35;15.68;;;4.55;;
51242;SDS011;76969;47.548;18.730;2024-03-02T11:18:04;9.60;;;3.35;;
51242;SDS011;76969;47.548;18.730;2024-03-02T11:20:38;12.73;;;4.25;;
51242;SDS011;76969;47.548;18.730;2024-03-02T11:23:05;10.18;;;3.33;;
51242;SDS011;76969;47.548;18.730;2024-03-02T11:25:32;10.27;;;3.90;;
51242;SDS011;76969;47.548;18.730;2024-03-02T11:27:59;8.50;;;3.53;;
51242;SDS011;76969;47.548;18.730;2024-03-02T11:32:58;11.07;;;3.72;;
51242;SDS011;76969;47.548;18.730;2024-03-02T11:35:34;8.80;;;3.50;;
51242;SDS011;76969;47.548;18.730;2024-03-02T11:38:01;13.13;;;3.60;;
51242;SDS011;76969;47.548;18.730;2024-03-02T11:40:29;10.60;;;3.90;;
51242;SDS011;76969;47.548;18.730;2024-03-02T11:42:55;10.43;;;4.37;;
51242;SDS011;76969;47.548;18.730;2024-03-02T11:45:28;9.18;;;4.05;;
51242;SDS011;76969;47.548;18.730;2024-03-02T11:47:55;9.90;;;3.28;;
51242;SDS011;76969;47.548;18.730;2024-03-02T11:50:35;11.02;;;4.82;;
51242;SDS011;76969;47.548;18.730;2024-03-02T11:53:06;7.25;;;2.75;;
51242;SDS011;76969;47.548;18.730;2024-03-02T11:55:37;8.48;;;2.80;;
51242;SDS011;76969;47.548;18.730;2024-03-02T11:58:03;9.60;;;2.67;;
51242;SDS011;76969;47.548;18.730;2024-03-02T12:00:29;11.30;;;3.87;;
51242;SDS011;76969;47.548;18.730;2024-03-02T12:03:08;7.72;;;2.62;;
51242;SDS011;76969;47.548;18.730;2024-03-02T12:05:37;8.95;;;2.78;;
51242;SDS011;76969;47.548;18.730;2024-03-02T12:08:04;11.02;;;3.12;;
51242;SDS011;76969;47.548;18.730;2024-03-02T12:10:32;9.60;;;3.22;;
51242;SDS011;76969;47.548;18.730;2024-03-02T12:12:59;8.93;;;3.03;;
51242;SDS011;76969;47.548;18.730;2024-03-02T12:15:26;9.60;;;3.40;;
51242;SDS011;76969;47.548;18.730;2024-03-02T12:17:56;10.68;;;3.78;;
51242;SDS011;76969;47.548;18.730;2024-03-02T12:20:23;11.02;;;3.30;;
51242;SDS011;76969;47.548;18.730;2024-03-02T12:22:50;8.75;;;2.65;;
51242;SDS011;76969;47.548;18.730;2024-03-02T12:25:18;11.95;;;2.92;;
51242;SDS011;76969;47.548;18.730;2024-03-02T12:27:45;7.07;;;2.42;;
51242;SDS011;76969;47.548;18.730;2024-03-02T12:30:13;8.75;;;2.33;;
51242;SDS011;76969;47.548;18.730;2024-03-02T12:32:42;7.75;;;2.78;;
51242;SDS011;76969;47.548;18.730;2024-03-02T12:35:10;8.40;;;3.20;;
51242;SDS011;76969;47.548;18.730;2024-03-02T12:37:49;7.70;;;2.53;;
51242;SDS011;76969;47.548;18.730;2024-03-02T12:40:19;7.80;;;2.70;;
51242;SDS011;76969;47.548;18.730;2024-03-02T12:42:46;10.15;;;3.00;;
51242;SDS011;76969;47.548;18.730;2024-03-02T12:45:12;7.72;;;2.90;;
51242;SDS011;76969;47.548;18.730;2024-03-02T12:47:39;9.52;;;3.05;;
51242;SDS011;76969;47.548;18.730;2024-03-02T12:50:06;7.55;;;2.67;;
51242;SDS011;76969;47.548;18.730;2024-03-02T12:52:33;7.50;;;2.67;;
51242;SDS011;76969;47.548;18.730;2024-03-02T12:55:00;7.32;;;2.33;;
51242;SDS011;76969;47.548;18.730;2024-03-02T12:57:29;8.50;;;3.08;;
51242;SDS011;76969;47.548;18.730;2024-03-02T13:02:28;5.22;;;1.90;;
51242;SDS011;76969;47.548;18.730;2024-03-02T13:04:55;6.93;;;2.25;;
51242;SDS011;76969;47.548;18.730;2024-03-02T13:07:23;7.05;;;2.40;;
51242;SDS011;76969;47.548;18.730;2024-03-02T13:09:49;6.57;;;2.20;;
51242;SDS011;76969;47.548;18.730;2024-03-02T13:12:16;7.25;;;2.78;;
51242;SDS011;76969;47.548;18.730;2024-03-02T13:14:43;8.73;;;2.37;;
51242;SDS011;76969;47.548;18.730;2024-03-02T13:17:09;7.05;;;2.42;;
51242;SDS011;76969;47.548;18.730;2024-03-02T13:19:35;6.65;;;2.70;;
51242;SDS011;76969;47.548;18.730;2024-03-02T13:22:01;6.78;;;2.40;;
51242;SDS011;76969;47.548;18.730;2024-03-02T13:24:30;6.90;;;2.08;;
51242;SDS011;76969;47.548;18.730;2024-03-02T13:26:56;7.20;;;2.95;;
51242;SDS011;76969;47.548;18.730;2024-03-02T13:29:23;5.85;;;2.05;;
51242;SDS011;76969;47.548;18.730;2024-03-02T13:31:50;7.55;;;2.85;;
51242;SDS011;76969;47.548;18.730;2024-03-02T13:34:16;5.32;;;1.85;;
51242;SDS011;76969;47.548;18.730;2024-03-02T13:36:42;6.20;;;2.05;;
51242;SDS011;76969;47.548;18.730;2024-03-02T13:39:08;5.60;;;2.37;;
51242;SDS011;76969;47.548;18.730;2024-03-02T13:41:36;8.82;;;2.72;;
51242;SDS011;76969;47.548;18.730;2024-03-02T13:44:02;8.25;;;2.83;;
51242;SDS011;76969;47.548;18.730;2024-03-02T13:46:28;10.43;;;2.70;;
51242;SDS011;76969;47.548;18.730;2024-03-02T13:48:54;8.77;;;3.20;;
51242;SDS011;76969;47.548;18.730;2024-03-02T13:51:21;9.10;;;2.92;;
51242;SDS011;76969;47.548;18.730;2024-03-02T13:53:47;6.72;;;2.50;;
51242;SDS011;76969;47.548;18.730;2024-03-02T13:56:12;9.38;;;3.10;;
51242;SDS011;76969;47.548;18.730;2024-03-02T13:58:38;8.35;;;2.78;;
51242;SDS011;76969;47.548;18.730;2024-03-02T14:01:05;11.93;;;4.57;;
51242;SDS011;76969;47.548;18.730;2024-03-02T14:03:31;9.30;;;2.80;;
51242;SDS011;76969;47.548;18.730;2024-03-02T14:05:57;10.20;;;3.28;;
51242;SDS011;76969;47.548;18.730;2024-03-02T14:08:23;8.07;;;3.45;;
51242;SDS011;76969;47.548;18.730;2024-03-02T14:10:49;11.00;;;4.20;;
51242;SDS011;76969;47.548;18.730;2024-03-02T14:13:15;9.07;;;3.22;;
51242;SDS011;76969;47.548;18.730;2024-03-02T14:15:41;9.25;;;3.03;;
51242;SDS011;76969;47.548;18.730;2024-03-02T14:18:07;8.10;;;3.03;;
51242;SDS011;76969;47.548;18.730;2024-03-02T14:20:36;10.85;;;3.25;;
51242;SDS011;76969;47.548;18.730;2024-03-02T14:23:03;7.22;;;2.80;;
51242;SDS011;76969;47.548;18.730;2024-03-02T14:25:29;10.68;;;3.50;;
51242;SDS011;76969;47.548;18.730;2024-03-02T14:27:59;8.88;;;3.42;;
51242;SDS011;76969;47.548;18.730;2024-03-02T14:30:25;10.77;;;4.15;;
51242;SDS011;76969;47.548;18.730;2024-03-02T14:32:51;9.75;;;3.78;;
51242;SDS011;76969;47.548;18.730;2024-03-02T14:35:17;13.38;;;4.45;;
51242;SDS011;76969;47.548;18.730;2024-03-02T14:37:44;8.95;;;3.92;;